sensor_id;sensor_type;location;lat;lon;timestamp;P1;durP1;ratioP1;P2;durP2;ratioP2
21705;SDS011;11014;53.076;18.208;2023-03-17T00:00:48;220.65;;;72.30;;
21705;SDS011;11014;53.076;18.208;2023-03-17T00:03:24;230.98;;;77.80;;
21705;SDS011;11014;53.076;18.208;2023-03-17T00:05:55;232.90;;;78.43;;
21705;SDS011;11014;53.076;18.208;2023-03-17T00:08:26;223.98;;;81.05;;
21705;SDS011;11014;53.076;18.208;2023-03-17T00:11:03;242.95;;;81.72;;
21705;SDS011;11014;53.076;18.208;2023-03-17T00:13:31;242.98;;;82.20;;
21705;SDS011;11014;53.076;18.208;2023-03-17T00:16:02;223.55;;;80.63;;
21705;SDS011;11014;53.076;18.208;2023-03-17T00:18:32;242.80;;;83.10;;
21705;SDS011;11014;53.076;18.208;2023-03-17T00:21:02;235.50;;;83.47;;
21705;SDS011;11014;53.076;18.208;2023-03-17T00:23:31;229.20;;;79.72;;
21705;SDS011;11014;53.076;18.208;2023-03-17T00:26:00;250.63;;;83.28;;
21705;SDS011;11014;53.076;18.208;2023-03-17T00:28:29;221.27;;;74.15;;
21705;SDS011;11014;53.076;18.208;2023-03-17T00:30:58;199.07;;;67.68;;
21705;SDS011;11014;53.076;18.208;2023-03-17T00:33:28;190.82;;;66.07;;
21705;SDS011;11014;53.076;18.208;2023-03-17T00:38:28;155.02;;;52.50;;
21705;SDS011;11014;53.076;18.208;2023-03-17T00:40:58;153.55;;;53.10;;
21705;SDS011;11014;53.076;18.208;2023-03-17T00:43:26;151.23;;;51.45;;
21705;SDS011;11014;53.076;18.208;2023-03-17T00:45:57;152.15;;;51.10;;
21705;SDS011;11014;53.076;18.208;2023-03-17T00:48:26;137.50;;;47.42;;
21705;SDS011;11014;53.076;18.208;2023-03-17T00:50:57;137.73;;;50.37;;
21705;SDS011;11014;53.076;18.208;2023-03-17T00:53:28;156.35;;;56.30;;
21705;SDS011;11014;53.076;18.208;2023-03-17T00:55:59;228.23;;;76.38;;
21705;SDS011;11014;53.076;18.208;2023-03-17T00:58:29;208.00;;;72.65;;
21705;SDS011;11014;53.076;18.208;2023-03-17T01:01:00;186.50;;;65.57;;
21705;SDS011;11014;53.076;18.208;2023-03-17T01:03:28;242.77;;;73.25;;
21705;SDS011;11014;53.076;18.208;2023-03-17T01:05:58;262.13;;;84.07;;
21705;SDS011;11014;53.076;18.208;2023-03-17T01:08:29;258.17;;;80.57;;
21705;SDS011;11014;53.076;18.208;2023-03-17T01:10:59;228.45;;;75.47;;
21705;SDS011;11014;53.076;18.208;2023-03-17T01:13:28;240.98;;;72.30;;
21705;SDS011;11014;53.076;18.208;2023-03-17T01:15:57;199.93;;;68.30;;
21705;SDS011;11014;53.076;18.208;2023-03-17T01:18:25;202.30;;;68.15;;
21705;SDS011;11014;53.076;18.208;2023-03-17T01:20:55;193.88;;;64.32;;
21705;SDS011;11014;53.076;18.208;2023-03-17T01:23:23;189.18;;;60.72;;
21705;SDS011;11014;53.076;18.208;2023-03-17T01:25:54;188.57;;;58.10;;
21705;SDS011;11014;53.076;18.208;2023-03-17T01:28:23;183.20;;;57.10;;
21705;SDS011;11014;53.076;18.208;2023-03-17T01:30:52;180.55;;;57.10;;
21705;SDS011;11014;53.076;18.208;2023-03-17T01:33:20;199.45;;;59.38;;
21705;SDS011;11014;53.076;18.208;2023-03-17T01:35:49;189.85;;;59.05;;
21705;SDS011;11014;53.076;18.208;2023-03-17T01:38:18;178.13;;;56.88;;
21705;SDS011;11014;53.076;18.208;2023-03-17T01:40:48;153.10;;;50.22;;
21705;SDS011;11014;53.076;18.208;2023-03-17T01:43:24;140.77;;;47.45;;
21705;SDS011;11014;53.076;18.208;2023-03-17T01:57:24;108.43;;;44.17;;
21705;SDS011;11014;53.076;18.208;2023-03-17T01:59:59;108.85;;;42.30;;
21705;SDS011;11014;53.076;18.208;2023-03-17T02:02:43;117.10;;;44.10;;
21705;SDS011;11014;53.076;18.208;2023-03-17T02:05:19;118.38;;;44.15;;
21705;SDS011;11014;53.076;18.208;2023-03-17T02:07:53;128.73;;;45.58;;
21705;SDS011;11014;53.076;18.208;2023-03-17T02:10:28;130.88;;;46.38;;
21705;SDS011;11014;53.076;18.208;2023-03-17T02:12:58;137.52;;;47.08;;
21705;SDS011;11014;53.076;18.208;2023-03-17T02:15:41;121.45;;;45.30;;
21705;SDS011;11014;53.076;18.208;2023-03-17T02:18:17;110.78;;;43.08;;
21705;SDS011;11014;53.076;18.208;2023-03-17T02:23:16;89.47;;;38.90;;
21705;SDS011;11014;53.076;18.208;2023-03-17T02:25:49;90.25;;;36.30;;
21705;SDS011;11014;53.076;18.208;2023-03-17T02:28:22;77.18;;;34.72;;
21705;SDS011;11014;53.076;18.208;2023-03-17T02:30:55;75.55;;;33.42;;
21705;SDS011;11014;53.076;18.208;2023-03-17T02:33:25;78.35;;;33.30;;
21705;SDS011;11014;53.076;18.208;2023-03-17T02:35:54;71.00;;;32.22;;
21705;SDS011;11014;53.076;18.208;2023-03-17T02:38:24;80.13;;;35.72;;
21705;SDS011;11014;53.076;18.208;2023-03-17T02:40:53;75.20;;;34.05;;
21705;SDS011;11014;53.076;18.208;2023-03-17T02:43:22;73.28;;;33.70;;
21705;SDS011;11014;53.076;18.208;2023-03-17T02:45:50;74.70;;;33.33;;
21705;SDS011;11014;53.076;18.208;2023-03-17T02:48:19;79.10;;;34.83;;
21705;SDS011;11014;53.076;18.208;2023-03-17T02:50:49;77.60;;;35.45;;
21705;SDS011;11014;53.076;18.208;2023-03-17T02:53:18;66.13;;;33.63;;
21705;SDS011;11014;53.076;18.208;2023-03-17T02:55:47;75.32;;;33.47;;
21705;SDS011;11014;53.076;18.208;2023-03-17T02:58:15;69.43;;;32.95;;
21705;SDS011;11014;53.076;18.208;2023-03-17T03:00:44;63.65;;;33.13;;
21705;SDS011;11014;53.076;18.208;2023-03-17T03:03:12;67.22;;;33.70;;
21705;SDS011;11014;53.076;18.208;2023-03-17T03:05:41;69.68;;;35.70;;
21705;SDS011;11014;53.076;18.208;2023-03-17T03:08:10;79.55;;;36.90;;
21705;SDS011;11014;53.076;18.208;2023-03-17T03:10:39;73.80;;;36.55;;
21705;SDS011;11014;53.076;18.208;2023-03-17T03:13:10;76.93;;;37.10;;
21705;SDS011;11014;53.076;18.208;2023-03-17T03:15:42;67.38;;;34.15;;
21705;SDS011;11014;53.076;18.208;2023-03-17T03:18:11;87.53;;;36.38;;
21705;SDS011;11014;53.076;18.208;2023-03-17T03:20:40;80.65;;;35.08;;
21705;SDS011;11014;53.076;18.208;2023-03-17T03:23:12;75.70;;;33.63;;
21705;SDS011;11014;53.076;18.208;2023-03-17T03:25:40;76.53;;;35.47;;
21705;SDS011;11014;53.076;18.208;2023-03-17T03:28:09;71.95;;;33.80;;
21705;SDS011;11014;53.076;18.208;2023-03-17T03:30:38;68.97;;;32.13;;
21705;SDS011;11014;53.076;18.208;2023-03-17T03:33:08;67.00;;;31.30;;
21705;SDS011;11014;53.076;18.208;2023-03-17T03:35:38;59.47;;;29.08;;
21705;SDS011;11014;53.076;18.208;2023-03-17T03:38:07;60.42;;;29.17;;
21705;SDS011;11014;53.076;18.208;2023-03-17T03:40:36;63.65;;;30.23;;
21705;SDS011;11014;53.076;18.208;2023-03-17T03:43:05;61.50;;;30.50;;
21705;SDS011;11014;53.076;18.208;2023-03-17T03:45:49;62.15;;;32.58;;
21705;SDS011;11014;53.076;18.208;2023-03-17T03:48:19;75.47;;;35.25;;
21705;SDS011;11014;53.076;18.208;2023-03-17T03:50:48;86.93;;;38.72;;
21705;SDS011;11014;53.076;18.208;2023-03-17T03:53:17;73.18;;;36.47;;
21705;SDS011;11014;53.076;18.208;2023-03-17T03:55:46;71.43;;;35.20;;
21705;SDS011;11014;53.076;18.208;2023-03-17T03:58:15;69.15;;;31.95;;
21705;SDS011;11014;53.076;18.208;2023-03-17T04:00:43;69.25;;;31.98;;
21705;SDS011;11014;53.076;18.208;2023-03-17T04:03:12;63.22;;;30.88;;
21705;SDS011;11014;53.076;18.208;2023-03-17T04:05:41;57.90;;;28.50;;
21705;SDS011;11014;53.076;18.208;2023-03-17T04:08:10;60.55;;;28.08;;
21705;SDS011;11014;53.076;18.208;2023-03-17T04:10:38;55.92;;;27.80;;
21705;SDS011;11014;53.076;18.208;2023-03-17T04:13:07;64.40;;;32.13;;
21705;SDS011;11014;53.076;18.208;2023-03-17T04:15:52;65.60;;;36.72;;
21705;SDS011;11014;53.076;18.208;2023-03-17T04:18:21;75.38;;;44.25;;
21705;SDS011;11014;53.076;18.208;2023-03-17T04:20:49;71.55;;;43.45;;
21705;SDS011;11014;53.076;18.208;2023-03-17T04:23:17;73.82;;;42.78;;
21705;SDS011;11014;53.076;18.208;2023-03-17T04:25:48;67.28;;;39.05;;
21705;SDS011;11014;53.076;18.208;2023-03-17T04:28:18;66.10;;;36.58;;
21705;SDS011;11014;53.076;18.208;2023-03-17T04:30:47;60.67;;;34.60;;
21705;SDS011;11014;53.076;18.208;2023-03-17T04:33:15;69.22;;;38.63;;
21705;SDS011;11014;53.076;18.208;2023-03-17T04:35:44;73.13;;;37.92;;
21705;SDS011;11014;53.076;18.208;2023-03-17T04:38:13;69.53;;;33.83;;
21705;SDS011;11014;53.076;18.208;2023-03-17T04:40:41;55.25;;;27.75;;
21705;SDS011;11014;53.076;18.208;2023-03-17T04:43:10;62.38;;;28.33;;
21705;SDS011;11014;53.076;18.208;2023-03-17T04:45:38;59.72;;;26.50;;
21705;SDS011;11014;53.076;18.208;2023-03-17T04:48:07;61.30;;;27.95;;
21705;SDS011;11014;53.076;18.208;2023-03-17T04:53:11;63.20;;;29.42;;
21705;SDS011;11014;53.076;18.208;2023-03-17T04:55:39;66.15;;;30.15;;
21705;SDS011;11014;53.076;18.208;2023-03-17T04:58:08;85.72;;;37.45;;
21705;SDS011;11014;53.076;18.208;2023-03-17T05:00:40;117.07;;;46.13;;
21705;SDS011;11014;53.076;18.208;2023-03-17T05:03:09;115.93;;;45.45;;
21705;SDS011;11014;53.076;18.208;2023-03-17T05:05:52;132.05;;;47.75;;
21705;SDS011;11014;53.076;18.208;2023-03-17T05:08:21;113.20;;;45.67;;
21705;SDS011;11014;53.076;18.208;2023-03-17T05:10:49;148.80;;;55.35;;
21705;SDS011;11014;53.076;18.208;2023-03-17T05:13:19;155.25;;;54.65;;
21705;SDS011;11014;53.076;18.208;2023-03-17T05:15:48;163.88;;;56.00;;
21705;SDS011;11014;53.076;18.208;2023-03-17T05:18:19;161.68;;;55.65;;
21705;SDS011;11014;53.076;18.208;2023-03-17T05:20:48;164.32;;;55.25;;
21705;SDS011;11014;53.076;18.208;2023-03-17T05:23:17;125.50;;;47.25;;
21705;SDS011;11014;53.076;18.208;2023-03-17T05:25:46;113.43;;;40.75;;
21705;SDS011;11014;53.076;18.208;2023-03-17T05:28:15;76.97;;;33.38;;
21705;SDS011;11014;53.076;18.208;2023-03-17T05:30:44;63.10;;;29.35;;
21705;SDS011;11014;53.076;18.208;2023-03-17T05:33:13;78.03;;;41.03;;
21705;SDS011;11014;53.076;18.208;2023-03-17T05:35:43;72.47;;;35.92;;
21705;SDS011;11014;53.076;18.208;2023-03-17T05:38:12;68.72;;;33.65;;
21705;SDS011;11014;53.076;18.208;2023-03-17T05:40:42;67.53;;;34.60;;
21705;SDS011;11014;53.076;18.208;2023-03-17T05:43:12;87.53;;;44.55;;
21705;SDS011;11014;53.076;18.208;2023-03-17T05:45:40;104.35;;;53.35;;
21705;SDS011;11014;53.076;18.208;2023-03-17T05:48:09;116.90;;;62.03;;
21705;SDS011;11014;53.076;18.208;2023-03-17T05:50:39;114.18;;;62.90;;
21705;SDS011;11014;53.076;18.208;2023-03-17T05:53:08;90.20;;;51.28;;
21705;SDS011;11014;53.076;18.208;2023-03-17T05:55:37;64.40;;;37.72;;
21705;SDS011;11014;53.076;18.208;2023-03-17T05:58:06;54.25;;;28.40;;
21705;SDS011;11014;53.076;18.208;2023-03-17T06:00:36;54.97;;;27.58;;
21705;SDS011;11014;53.076;18.208;2023-03-17T06:03:05;60.10;;;28.83;;
21705;SDS011;11014;53.076;18.208;2023-03-17T06:05:34;78.65;;;32.40;;
21705;SDS011;11014;53.076;18.208;2023-03-17T06:08:04;78.88;;;33.03;;
21705;SDS011;11014;53.076;18.208;2023-03-17T06:10:33;69.00;;;29.83;;
21705;SDS011;11014;53.076;18.208;2023-03-17T06:13:01;57.05;;;27.42;;
21705;SDS011;11014;53.076;18.208;2023-03-17T06:15:31;51.35;;;24.45;;
21705;SDS011;11014;53.076;18.208;2023-03-17T06:18:03;48.13;;;24.60;;
21705;SDS011;11014;53.076;18.208;2023-03-17T06:20:32;46.10;;;24.25;;
21705;SDS011;11014;53.076;18.208;2023-03-17T06:23:01;46.53;;;24.92;;
21705;SDS011;11014;53.076;18.208;2023-03-17T06:25:33;44.03;;;24.52;;
21705;SDS011;11014;53.076;18.208;2023-03-17T06:30:58;43.47;;;24.73;;
21705;SDS011;11014;53.076;18.208;2023-03-17T06:33:27;47.08;;;25.42;;
21705;SDS011;11014;53.076;18.208;2023-03-17T06:35:56;46.92;;;26.42;;
21705;SDS011;11014;53.076;18.208;2023-03-17T06:38:26;46.00;;;23.73;;
21705;SDS011;11014;53.076;18.208;2023-03-17T06:40:54;46.95;;;23.77;;
21705;SDS011;11014;53.076;18.208;2023-03-17T06:43:23;45.78;;;24.25;;
21705;SDS011;11014;53.076;18.208;2023-03-17T06:45:52;50.38;;;24.83;;
21705;SDS011;11014;53.076;18.208;2023-03-17T06:48:20;48.80;;;24.15;;
21705;SDS011;11014;53.076;18.208;2023-03-17T06:50:50;42.72;;;24.15;;
21705;SDS011;11014;53.076;18.208;2023-03-17T07:16:16;78.15;;;39.88;;
21705;SDS011;11014;53.076;18.208;2023-03-17T07:19:59;67.68;;;34.10;;
21705;SDS011;11014;53.076;18.208;2023-03-17T07:23:32;119.35;;;56.05;;
21705;SDS011;11014;53.076;18.208;2023-03-17T07:26:29;105.60;;;44.33;;
21705;SDS011;11014;53.076;18.208;2023-03-17T07:29:51;77.97;;;35.58;;
21705;SDS011;11014;53.076;18.208;2023-03-17T07:51:00;47.47;;;24.55;;
21705;SDS011;11014;53.076;18.208;2023-03-17T07:54:15;43.10;;;21.85;;
21705;SDS011;11014;53.076;18.208;2023-03-17T07:56:50;35.70;;;20.02;;
21705;SDS011;11014;53.076;18.208;2023-03-17T08:07:05;37.95;;;19.33;;
21705;SDS011;11014;53.076;18.208;2023-03-17T08:29:11;25.65;;;12.45;;
21705;SDS011;11014;53.076;18.208;2023-03-17T08:35:40;25.25;;;12.80;;
21705;SDS011;11014;53.076;18.208;2023-03-17T08:38:57;24.55;;;12.73;;
21705;SDS011;11014;53.076;18.208;2023-03-17T08:41:55;22.30;;;12.05;;
21705;SDS011;11014;53.076;18.208;2023-03-17T08:44:38;22.00;;;12.30;;
21705;SDS011;11014;53.076;18.208;2023-03-17T08:47:11;22.52;;;11.82;;
21705;SDS011;11014;53.076;18.208;2023-03-17T08:49:39;21.63;;;11.23;;
21705;SDS011;11014;53.076;18.208;2023-03-17T08:52:09;21.63;;;10.60;;
21705;SDS011;11014;53.076;18.208;2023-03-17T08:54:38;24.88;;;11.48;;
21705;SDS011;11014;53.076;18.208;2023-03-17T09:00:26;21.23;;;12.00;;
21705;SDS011;11014;53.076;18.208;2023-03-17T09:02:55;17.92;;;11.00;;
21705;SDS011;11014;53.076;18.208;2023-03-17T09:05:25;22.65;;;11.20;;
21705;SDS011;11014;53.076;18.208;2023-03-17T09:07:54;22.00;;;10.55;;
21705;SDS011;11014;53.076;18.208;2023-03-17T09:10:22;17.52;;;10.10;;
21705;SDS011;11014;53.076;18.208;2023-03-17T09:12:51;18.75;;;10.00;;
21705;SDS011;11014;53.076;18.208;2023-03-17T09:15:20;16.52;;;9.63;;
21705;SDS011;11014;53.076;18.208;2023-03-17T09:17:49;18.13;;;10.65;;
21705;SDS011;11014;53.076;18.208;2023-03-17T09:20:18;27.48;;;12.85;;
21705;SDS011;11014;53.076;18.208;2023-03-17T09:22:47;22.05;;;12.18;;
21705;SDS011;11014;53.076;18.208;2023-03-17T09:25:16;22.40;;;11.55;;
21705;SDS011;11014;53.076;18.208;2023-03-17T09:27:45;22.33;;;12.23;;
21705;SDS011;11014;53.076;18.208;2023-03-17T09:30:15;21.60;;;13.20;;
21705;SDS011;11014;53.076;18.208;2023-03-17T09:32:44;26.83;;;12.82;;
21705;SDS011;11014;53.076;18.208;2023-03-17T09:35:13;24.92;;;12.88;;
21705;SDS011;11014;53.076;18.208;2023-03-17T09:40:46;24.05;;;13.73;;
21705;SDS011;11014;53.076;18.208;2023-03-17T09:43:32;22.65;;;11.75;;
21705;SDS011;11014;53.076;18.208;2023-03-17T09:47:01;20.27;;;12.23;;
21705;SDS011;11014;53.076;18.208;2023-03-17T09:59:27;22.13;;;11.75;;
21705;SDS011;11014;53.076;18.208;2023-03-17T10:02:20;26.08;;;13.82;;
21705;SDS011;11014;53.076;18.208;2023-03-17T10:08:04;21.08;;;10.10;;
21705;SDS011;11014;53.076;18.208;2023-03-17T10:17:32;22.40;;;12.48;;
21705;SDS011;11014;53.076;18.208;2023-03-17T10:20:16;17.38;;;9.27;;
21705;SDS011;11014;53.076;18.208;2023-03-17T10:23:10;19.65;;;9.63;;
21705;SDS011;11014;53.076;18.208;2023-03-17T10:25:51;13.35;;;7.78;;
21705;SDS011;11014;53.076;18.208;2023-03-17T10:28:31;14.18;;;8.02;;
21705;SDS011;11014;53.076;18.208;2023-03-17T10:33:49;18.10;;;10.32;;
21705;SDS011;11014;53.076;18.208;2023-03-17T10:36:37;22.05;;;11.18;;
21705;SDS011;11014;53.076;18.208;2023-03-17T10:39:09;15.50;;;9.10;;
21705;SDS011;11014;53.076;18.208;2023-03-17T10:48:36;13.85;;;8.23;;
21705;SDS011;11014;53.076;18.208;2023-03-17T10:55:03;15.65;;;8.63;;
21705;SDS011;11014;53.076;18.208;2023-03-17T10:57:35;21.75;;;10.65;;
21705;SDS011;11014;53.076;18.208;2023-03-17T11:00:13;16.92;;;10.38;;
21705;SDS011;11014;53.076;18.208;2023-03-17T11:05:26;18.83;;;10.73;;
21705;SDS011;11014;53.076;18.208;2023-03-17T11:10:52;16.60;;;9.65;;
21705;SDS011;11014;53.076;18.208;2023-03-17T11:13:29;20.15;;;9.98;;
21705;SDS011;11014;53.076;18.208;2023-03-17T11:18:57;15.60;;;9.20;;
21705;SDS011;11014;53.076;18.208;2023-03-17T11:24:57;17.63;;;8.90;;
21705;SDS011;11014;53.076;18.208;2023-03-17T11:27:34;14.52;;;8.18;;
21705;SDS011;11014;53.076;18.208;2023-03-17T11:35:37;13.25;;;8.18;;
21705;SDS011;11014;53.076;18.208;2023-03-17T11:40:53;14.18;;;8.38;;
21705;SDS011;11014;53.076;18.208;2023-03-17T11:43:31;15.18;;;8.45;;
21705;SDS011;11014;53.076;18.208;2023-03-17T11:46:33;16.10;;;8.48;;
21705;SDS011;11014;53.076;18.208;2023-03-17T11:57:47;17.75;;;11.05;;
21705;SDS011;11014;53.076;18.208;2023-03-17T12:00:23;16.25;;;10.05;;
21705;SDS011;11014;53.076;18.208;2023-03-17T12:03:38;16.88;;;9.15;;
21705;SDS011;11014;53.076;18.208;2023-03-17T12:05:54;16.50;;;9.60;;
21705;SDS011;11014;53.076;18.208;2023-03-17T12:11:06;15.23;;;8.70;;
21705;SDS011;11014;53.076;18.208;2023-03-17T12:13:40;14.90;;;8.52;;
21705;SDS011;11014;53.076;18.208;2023-03-17T12:16:14;14.77;;;9.95;;
21705;SDS011;11014;53.076;18.208;2023-03-17T12:21:56;17.45;;;9.23;;
21705;SDS011;11014;53.076;18.208;2023-03-17T12:27:12;13.18;;;7.15;;
21705;SDS011;11014;53.076;18.208;2023-03-17T12:32:38;14.95;;;8.15;;
21705;SDS011;11014;53.076;18.208;2023-03-17T12:38:07;11.00;;;7.30;;
21705;SDS011;11014;53.076;18.208;2023-03-17T12:40:50;10.35;;;6.82;;
21705;SDS011;11014;53.076;18.208;2023-03-17T12:49:16;13.65;;;7.45;;
21705;SDS011;11014;53.076;18.208;2023-03-17T12:54:34;12.95;;;6.95;;
21705;SDS011;11014;53.076;18.208;2023-03-17T12:57:16;11.40;;;7.50;;
21705;SDS011;11014;53.076;18.208;2023-03-17T12:59:52;10.80;;;7.63;;
21705;SDS011;11014;53.076;18.208;2023-03-17T13:02:37;10.85;;;7.78;;
21705;SDS011;11014;53.076;18.208;2023-03-17T13:05:08;9.82;;;6.68;;
21705;SDS011;11014;53.076;18.208;2023-03-17T13:45:44;8.25;;;5.55;;
21705;SDS011;11014;53.076;18.208;2023-03-17T13:58:30;8.45;;;5.82;;
21705;SDS011;11014;53.076;18.208;2023-03-17T14:01:34;9.65;;;5.85;;
21705;SDS011;11014;53.076;18.208;2023-03-17T14:04:17;10.57;;;6.07;;
21705;SDS011;11014;53.076;18.208;2023-03-17T14:06:53;9.68;;;6.35;;
21705;SDS011;11014;53.076;18.208;2023-03-17T14:10:04;9.48;;;6.22;;
21705;SDS011;11014;53.076;18.208;2023-03-17T14:12:41;12.98;;;7.40;;
21705;SDS011;11014;53.076;18.208;2023-03-17T14:15:23;9.95;;;6.30;;
21705;SDS011;11014;53.076;18.208;2023-03-17T14:21:49;17.90;;;9.13;;
21705;SDS011;11014;53.076;18.208;2023-03-17T14:24:28;14.95;;;8.70;;
21705;SDS011;11014;53.076;18.208;2023-03-17T14:27:05;13.63;;;9.23;;
21705;SDS011;11014;53.076;18.208;2023-03-17T14:29:37;14.13;;;9.40;;
21705;SDS011;11014;53.076;18.208;2023-03-17T14:32:11;15.50;;;10.43;;
21705;SDS011;11014;53.076;18.208;2023-03-17T14:34:55;15.48;;;8.48;;
21705;SDS011;11014;53.076;18.208;2023-03-17T14:37:28;17.23;;;9.68;;
21705;SDS011;11014;53.076;18.208;2023-03-17T14:39:59;17.08;;;8.82;;
21705;SDS011;11014;53.076;18.208;2023-03-17T14:42:50;14.40;;;7.95;;
21705;SDS011;11014;53.076;18.208;2023-03-17T14:47:55;12.50;;;7.82;;
21705;SDS011;11014;53.076;18.208;2023-03-17T14:50:29;13.30;;;7.10;;
21705;SDS011;11014;53.076;18.208;2023-03-17T14:53:03;14.57;;;7.75;;
21705;SDS011;11014;53.076;18.208;2023-03-17T15:04:17;17.55;;;9.52;;
21705;SDS011;11014;53.076;18.208;2023-03-17T15:06:53;13.63;;;8.25;;
21705;SDS011;11014;53.076;18.208;2023-03-17T15:10:01;16.27;;;9.07;;
21705;SDS011;11014;53.076;18.208;2023-03-17T15:12:34;18.58;;;8.70;;
21705;SDS011;11014;53.076;18.208;2023-03-17T15:15:05;15.52;;;7.97;;
21705;SDS011;11014;53.076;18.208;2023-03-17T15:17:59;18.67;;;8.90;;
21705;SDS011;11014;53.076;18.208;2023-03-17T15:20:32;15.65;;;8.52;;
21705;SDS011;11014;53.076;18.208;2023-03-17T15:23:21;15.32;;;8.70;;
21705;SDS011;11014;53.076;18.208;2023-03-17T15:25:53;15.93;;;8.13;;
21705;SDS011;11014;53.076;18.208;2023-03-17T15:28:25;16.02;;;9.48;;
21705;SDS011;11014;53.076;18.208;2023-03-17T15:30:58;16.25;;;9.13;;
21705;SDS011;11014;53.076;18.208;2023-03-17T15:33:43;15.25;;;8.82;;
21705;SDS011;11014;53.076;18.208;2023-03-17T15:39:01;15.57;;;8.80;;
21705;SDS011;11014;53.076;18.208;2023-03-17T15:41:54;20.38;;;11.68;;
21705;SDS011;11014;53.076;18.208;2023-03-17T15:44:26;26.92;;;14.20;;
21705;SDS011;11014;53.076;18.208;2023-03-17T15:50:24;38.95;;;19.10;;
21705;SDS011;11014;53.076;18.208;2023-03-17T15:53:04;18.95;;;11.70;;
21705;SDS011;11014;53.076;18.208;2023-03-17T15:56:25;18.15;;;11.23;;
21705;SDS011;11014;53.076;18.208;2023-03-17T16:00:26;22.70;;;10.80;;
21705;SDS011;11014;53.076;18.208;2023-03-17T16:03:13;15.50;;;9.63;;
21705;SDS011;11014;53.076;18.208;2023-03-17T16:05:44;16.35;;;9.90;;
21705;SDS011;11014;53.076;18.208;2023-03-17T16:10:56;19.85;;;11.07;;
21705;SDS011;11014;53.076;18.208;2023-03-17T16:13:24;16.42;;;11.30;;
21705;SDS011;11014;53.076;18.208;2023-03-17T16:15:56;15.20;;;9.25;;
21705;SDS011;11014;53.076;18.208;2023-03-17T16:18:31;19.33;;;9.50;;
21705;SDS011;11014;53.076;18.208;2023-03-17T16:21:01;20.08;;;10.50;;
21705;SDS011;11014;53.076;18.208;2023-03-17T16:23:32;19.35;;;10.60;;
21705;SDS011;11014;53.076;18.208;2023-03-17T16:26:04;15.70;;;10.27;;
21705;SDS011;11014;53.076;18.208;2023-03-17T16:28:43;23.52;;;12.98;;
21705;SDS011;11014;53.076;18.208;2023-03-17T16:31:18;48.55;;;30.95;;
21705;SDS011;11014;53.076;18.208;2023-03-17T16:33:51;56.78;;;34.97;;
21705;SDS011;11014;53.076;18.208;2023-03-17T16:36:22;28.23;;;16.02;;
21705;SDS011;11014;53.076;18.208;2023-03-17T16:38:53;36.58;;;19.38;;
21705;SDS011;11014;53.076;18.208;2023-03-17T16:41:22;25.13;;;15.00;;
21705;SDS011;11014;53.076;18.208;2023-03-17T16:43:57;31.88;;;17.13;;
21705;SDS011;11014;53.076;18.208;2023-03-17T16:46:29;24.55;;;14.32;;
21705;SDS011;11014;53.076;18.208;2023-03-17T16:52:21;22.08;;;13.02;;
21705;SDS011;11014;53.076;18.208;2023-03-17T16:57:49;33.80;;;17.17;;
21705;SDS011;11014;53.076;18.208;2023-03-17T17:00:29;29.63;;;14.32;;
21705;SDS011;11014;53.076;18.208;2023-03-17T17:07:57;31.33;;;14.95;;
21705;SDS011;11014;53.076;18.208;2023-03-17T17:13:51;26.02;;;13.75;;
21705;SDS011;11014;53.076;18.208;2023-03-17T17:16:38;25.33;;;14.10;;
21705;SDS011;11014;53.076;18.208;2023-03-17T17:19:13;24.63;;;14.63;;
21705;SDS011;11014;53.076;18.208;2023-03-17T17:21:55;22.98;;;12.68;;
21705;SDS011;11014;53.076;18.208;2023-03-17T17:24:31;27.70;;;14.50;;
21705;SDS011;11014;53.076;18.208;2023-03-17T17:29:54;37.38;;;19.20;;
21705;SDS011;11014;53.076;18.208;2023-03-17T17:32:39;41.58;;;20.13;;
21705;SDS011;11014;53.076;18.208;2023-03-17T17:35:08;47.58;;;23.92;;
21705;SDS011;11014;53.076;18.208;2023-03-17T17:37:40;42.27;;;22.63;;
21705;SDS011;11014;53.076;18.208;2023-03-17T17:40:13;34.55;;;20.20;;
21705;SDS011;11014;53.076;18.208;2023-03-17T17:42:48;27.98;;;16.67;;
21705;SDS011;11014;53.076;18.208;2023-03-17T17:45:16;31.05;;;19.25;;
21705;SDS011;11014;53.076;18.208;2023-03-17T17:47:47;26.85;;;15.02;;
21705;SDS011;11014;53.076;18.208;2023-03-17T17:50:26;27.75;;;13.93;;
21705;SDS011;11014;53.076;18.208;2023-03-17T17:56:00;30.50;;;15.95;;
21705;SDS011;11014;53.076;18.208;2023-03-17T17:58:31;36.95;;;18.27;;
21705;SDS011;11014;53.076;18.208;2023-03-17T18:01:13;34.53;;;16.52;;
21705;SDS011;11014;53.076;18.208;2023-03-17T18:03:47;32.60;;;17.55;;
21705;SDS011;11014;53.076;18.208;2023-03-17T18:06:27;36.78;;;18.00;;
21705;SDS011;11014;53.076;18.208;2023-03-17T18:08:59;34.10;;;17.30;;
21705;SDS011;11014;53.076;18.208;2023-03-17T18:11:32;38.63;;;20.33;;
21705;SDS011;11014;53.076;18.208;2023-03-17T18:14:15;30.40;;;17.38;;
21705;SDS011;11014;53.076;18.208;2023-03-17T18:16:48;33.65;;;17.33;;
21705;SDS011;11014;53.076;18.208;2023-03-17T18:47:28;24.90;;;12.57;;
21705;SDS011;11014;53.076;18.208;2023-03-17T18:52:12;23.27;;;11.15;;
21705;SDS011;11014;53.076;18.208;2023-03-17T18:54:41;22.50;;;11.93;;
21705;SDS011;11014;53.076;18.208;2023-03-17T18:57:13;23.35;;;12.85;;
21705;SDS011;11014;53.076;18.208;2023-03-17T18:59:41;21.17;;;11.45;;
21705;SDS011;11014;53.076;18.208;2023-03-17T19:02:11;22.15;;;12.85;;
21705;SDS011;11014;53.076;18.208;2023-03-17T19:04:40;25.20;;;13.13;;
21705;SDS011;11014;53.076;18.208;2023-03-17T19:12:04;29.42;;;14.75;;
21705;SDS011;11014;53.076;18.208;2023-03-17T19:24:51;29.07;;;14.67;;
21705;SDS011;11014;53.076;18.208;2023-03-17T19:27:33;42.65;;;24.35;;
21705;SDS011;11014;53.076;18.208;2023-03-17T19:30:20;58.00;;;26.70;;
21705;SDS011;11014;53.076;18.208;2023-03-17T19:33:24;43.65;;;23.13;;
21705;SDS011;11014;53.076;18.208;2023-03-17T19:35:55;26.88;;;15.00;;
21705;SDS011;11014;53.076;18.208;2023-03-17T19:38:25;23.48;;;13.70;;
21705;SDS011;11014;53.076;18.208;2023-03-17T19:44:00;24.08;;;11.45;;
21705;SDS011;11014;53.076;18.208;2023-03-17T19:46:31;22.75;;;11.43;;
21705;SDS011;11014;53.076;18.208;2023-03-17T19:49:04;24.38;;;11.85;;
21705;SDS011;11014;53.076;18.208;2023-03-17T19:51:33;28.88;;;12.23;;
21705;SDS011;11014;53.076;18.208;2023-03-17T19:54:05;25.58;;;13.43;;
21705;SDS011;11014;53.076;18.208;2023-03-17T19:56:37;25.45;;;13.10;;
21705;SDS011;11014;53.076;18.208;2023-03-17T19:59:08;21.08;;;12.10;;
21705;SDS011;11014;53.076;18.208;2023-03-17T20:02:20;23.58;;;11.63;;
21705;SDS011;11014;53.076;18.208;2023-03-17T20:05:14;21.17;;;10.73;;
21705;SDS011;11014;53.076;18.208;2023-03-17T20:07:55;18.00;;;10.15;;
21705;SDS011;11014;53.076;18.208;2023-03-17T20:10:28;22.20;;;11.75;;
21705;SDS011;11014;53.076;18.208;2023-03-17T20:13:07;20.77;;;10.90;;
21705;SDS011;11014;53.076;18.208;2023-03-17T20:16:35;25.27;;;12.63;;
21705;SDS011;11014;53.076;18.208;2023-03-17T20:19:56;22.77;;;11.57;;